createdAt,value
2019-02-02T00:01:47.594Z,64.60
2019-02-02T00:04:17.630Z,64.03
2019-02-02T00:06:46.542Z,63.78
2019-02-02T00:09:15.483Z,62.08
2019-02-02T00:11:44.246Z,65.10
2019-02-02T00:14:13.897Z,61.55
2019-02-02T00:16:42.706Z,62.67
2019-02-02T00:19:11.602Z,61.58
2019-02-02T00:21:40.733Z,64.82
2019-02-02T00:24:09.580Z,62.95
2019-02-02T00:26:38.330Z,63.75
2019-02-02T00:29:09.478Z,60.33
2019-02-02T00:31:38.363Z,60.78
2019-02-02T00:34:07.194Z,62.43
2019-02-02T00:36:36.120Z,58.75
2019-02-02T00:39:08.739Z,56.48
2019-02-02T00:41:37.723Z,58.83
2019-02-02T00:44:06.434Z,57.55
2019-02-02T00:46:35.253Z,57.55
2019-02-02T00:49:06.995Z,57.00
2019-02-02T00:51:56.960Z,58.65
2019-02-02T00:54:25.930Z,58.95
2019-02-02T00:56:54.815Z,55.95
2019-02-02T00:59:23.603Z,56.55
2019-02-02T01:01:52.555Z,57.08
2019-02-02T01:04:21.425Z,56.92
2019-02-02T01:06:50.316Z,58.98
2019-02-02T01:09:22.235Z,55.45
2019-02-02T01:11:50.968Z,58.42
2019-02-02T01:14:20.954Z,56.13
2019-02-02T01:16:49.930Z,56.92
2019-02-02T01:19:19.117Z,55.55
2019-02-02T01:21:48.050Z,55.90
2019-02-02T01:24:16.825Z,53.95
2019-02-02T01:26:45.558Z,53.33
2019-02-02T01:29:14.400Z,52.65
2019-02-02T01:31:43.402Z,53.58
2019-02-02T01:34:12.193Z,52.98
2019-02-02T01:36:41.040Z,51.50
2019-02-02T01:39:09.818Z,54.60
2019-02-02T01:41:38.710Z,53.23
2019-02-02T01:44:07.647Z,52.13
2019-02-02T01:46:36.462Z,55.63
2019-02-02T01:49:05.427Z,50.35
2019-02-02T01:51:34.162Z,53.78
2019-02-02T01:54:03.046Z,49.15
2019-02-02T01:56:31.945Z,53.23
2019-02-02T01:59:02.930Z,52.40
2019-02-02T02:01:31.770Z,55.28
2019-02-02T02:04:00.554Z,49.35
2019-02-02T02:06:29.414Z,50.33
2019-02-02T02:08:59.891Z,52.75
2019-02-02T02:11:29.981Z,52.67
2019-02-02T02:13:58.723Z,55.05
2019-02-02T02:16:27.659Z,56.33
2019-02-02T02:18:57.358Z,53.42
2019-02-02T02:21:27.411Z,52.85
2019-02-02T02:23:56.265Z,51.40
2019-02-02T02:26:25.061Z,56.05
2019-02-02T02:28:53.799Z,54.98
2019-02-02T02:31:22.669Z,54.20
2019-02-02T02:33:51.434Z,55.15
2019-02-02T02:36:20.247Z,56.13
2019-02-02T02:38:49.048Z,55.70
2019-02-02T02:41:17.899Z,54.67
2019-02-02T02:43:46.732Z,52.43
2019-02-02T02:46:15.574Z,55.50
2019-02-02T02:48:44.349Z,56.63
2019-02-02T02:51:13.210Z,55.35
2019-02-02T02:53:41.967Z,56.33
2019-02-02T02:56:10.838Z,56.00
2019-02-02T02:58:41.532Z,55.15
2019-02-02T03:01:10.063Z,54.73
2019-02-02T03:03:38.932Z,53.17
2019-02-02T03:06:07.886Z,54.30
2019-02-02T03:08:36.686Z,50.78
2019-02-02T03:11:05.478Z,54.48
2019-02-02T03:13:34.206Z,51.50
2019-02-02T03:16:04.706Z,51.88
2019-02-02T03:18:36.290Z,52.53
2019-02-02T03:21:05.131Z,51.15
2019-02-02T03:23:34.067Z,51.23
2019-02-02T03:26:02.979Z,51.77
2019-02-02T03:28:31.878Z,49.67
2019-02-02T03:31:00.776Z,52.00
2019-02-02T03:33:29.864Z,50.48
2019-02-02T03:35:58.808Z,50.20
2019-02-02T03:38:27.671Z,50.55
2019-02-02T03:40:56.665Z,49.58
2019-02-02T03:43:25.469Z,51.50
2019-02-02T03:45:54.344Z,52.05
2019-02-02T03:48:23.179Z,52.62
2019-02-02T03:50:52.126Z,51.30
2019-02-02T03:53:20.898Z,52.30
2019-02-02T03:55:49.751Z,52.25
2019-02-02T03:58:18.581Z,55.43
2019-02-02T04:00:47.528Z,54.98
2019-02-02T04:03:16.398Z,54.13
2019-02-02T04:05:45.219Z,57.53
2019-02-02T04:08:14.050Z,57.67
2019-02-02T04:10:42.851Z,58.25
2019-02-02T04:13:11.831Z,60.10
2019-02-02T04:15:43.014Z,63.45
2019-02-02T04:18:11.960Z,60.43
2019-02-02T04:20:42.388Z,63.80
2019-02-02T04:23:12.097Z,61.75
2019-02-02T04:25:42.689Z,65.50
2019-02-02T04:28:11.514Z,65.67
2019-02-02T04:30:40.423Z,66.95
2019-02-02T04:33:09.449Z,63.83
2019-02-02T04:35:38.409Z,64.47
2019-02-02T04:38:07.370Z,69.87
2019-02-02T04:40:36.162Z,65.87
2019-02-02T04:43:05.158Z,67.03
2019-02-02T04:45:35.747Z,67.70
2019-02-02T04:48:05.718Z,67.90
2019-02-02T04:50:34.550Z,67.00
2019-02-02T04:53:03.516Z,64.80
2019-02-02T04:55:33.944Z,62.98
2019-02-02T04:58:03.019Z,65.37
2019-02-02T05:00:33.829Z,65.62
2019-02-02T05:03:02.755Z,64.35
2019-02-02T05:05:31.578Z,66.02
2019-02-02T05:08:00.399Z,65.25
2019-02-02T05:10:29.594Z,62.95
2019-02-02T05:12:58.642Z,62.65
2019-02-02T05:15:27.452Z,66.02
2019-02-02T05:17:58.262Z,65.28
2019-02-02T05:20:29.401Z,63.75
2019-02-02T05:22:58.477Z,64.37
2019-02-02T05:25:27.350Z,61.23
2019-02-02T05:27:56.392Z,60.85
2019-02-02T05:30:28.131Z,62.80
2019-02-02T05:32:56.914Z,60.15
2019-02-02T05:35:25.709Z,61.10
2019-02-02T05:37:54.514Z,57.25
2019-02-02T05:40:24.981Z,58.42
2019-02-02T05:42:53.827Z,55.30
2019-02-02T05:45:24.440Z,57.27
2019-02-02T05:47:54.438Z,56.33
2019-02-02T05:50:24.558Z,57.17
2019-02-02T05:52:53.262Z,56.53
2019-02-02T05:55:25.129Z,53.35
2019-02-02T05:57:54.671Z,55.50
2019-02-02T06:00:38.388Z,55.38
2019-02-02T06:03:07.185Z,55.55
2019-02-02T06:05:35.960Z,55.63
2019-02-02T06:08:04.708Z,55.78
2019-02-02T06:10:35.418Z,56.55
2019-02-02T06:13:04.312Z,55.43
2019-02-02T06:15:33.163Z,56.65
2019-02-02T06:18:05.046Z,53.65
2019-02-02T06:20:42.151Z,56.20
2019-02-02T06:23:10.926Z,55.38
2019-02-02T06:25:39.787Z,57.00
2019-02-02T06:28:08.722Z,54.40
2019-02-02T06:30:37.457Z,57.75
2019-02-02T06:33:07.700Z,54.40
2019-02-02T06:35:36.587Z,52.55
2019-02-02T06:38:05.608Z,54.30
2019-02-02T06:40:34.351Z,53.50
2019-02-02T06:43:03.086Z,52.67
2019-02-02T06:45:33.947Z,53.78
2019-02-02T06:48:02.843Z,55.50
2019-02-02T06:50:31.713Z,54.63
2019-02-02T06:53:00.823Z,52.83
2019-02-02T06:55:29.715Z,52.98
2019-02-02T06:57:58.569Z,54.88
2019-02-02T07:00:27.412Z,52.05
2019-02-02T07:02:56.224Z,53.45
2019-02-02T07:05:25.026Z,53.75
2019-02-02T07:07:53.762Z,51.02
2019-02-02T07:10:24.165Z,52.40
2019-02-02T07:12:52.985Z,54.10
2019-02-02T07:15:24.003Z,52.20
2019-02-02T07:17:52.790Z,48.23
2019-02-02T07:20:21.568Z,52.15
2019-02-02T07:22:54.142Z,51.37
2019-02-02T07:25:22.895Z,52.83
2019-02-02T07:27:51.778Z,53.90
2019-02-02T07:30:28.622Z,55.48
2019-02-02T07:32:54.386Z,52.58
2019-02-02T07:35:24.619Z,52.33
2019-02-02T07:37:53.350Z,51.98
2019-02-02T07:40:22.163Z,52.88
2019-02-02T07:42:51.029Z,54.60
2019-02-02T07:45:25.151Z,52.45
2019-02-02T07:47:56.246Z,52.90
2019-02-02T07:50:25.107Z,56.58
2019-02-02T07:52:53.960Z,55.20
2019-02-02T07:55:22.804Z,52.90
2019-02-02T08:01:04.544Z,52.73
2019-02-02T08:03:33.351Z,53.08
2019-02-02T08:06:02.230Z,54.88
2019-02-02T08:08:32.301Z,52.43
2019-02-02T08:11:01.222Z,55.52
2019-02-02T08:13:29.972Z,54.35
2019-02-02T08:15:58.790Z,54.93
2019-02-02T08:18:27.599Z,53.75
2019-02-02T08:20:56.378Z,55.85
2019-02-02T08:23:25.331Z,54.25
2019-02-02T08:25:54.103Z,53.87
2019-02-02T08:28:23.092Z,54.08
2019-02-02T08:30:52.901Z,52.75
2019-02-02T08:33:21.825Z,56.85
2019-02-02T08:35:50.674Z,53.38
2019-02-02T08:38:19.434Z,53.58
2019-02-02T08:40:48.172Z,51.75
2019-02-02T08:43:16.910Z,51.80
2019-02-02T08:45:45.662Z,54.75
2019-02-02T08:48:14.414Z,51.98
2019-02-02T08:50:43.175Z,52.30
2019-02-02T08:53:12.002Z,51.48
2019-02-02T08:55:40.750Z,52.03
2019-02-02T08:58:09.462Z,47.55
2019-02-02T09:00:38.296Z,50.28
2019-02-02T09:03:07.131Z,50.00
2019-02-02T09:05:35.877Z,51.48
2019-02-02T09:08:04.868Z,51.70
2019-02-02T09:10:33.614Z,51.30
2019-02-02T09:13:02.382Z,51.30
2019-02-02T09:15:31.142Z,48.65
2019-02-02T09:17:59.991Z,51.77
2019-02-02T09:20:28.816Z,52.20
2019-02-02T09:23:05.779Z,53.40
2019-02-02T09:25:28.549Z,52.70
2019-02-02T09:27:58.763Z,52.27
2019-02-02T09:30:32.751Z,51.25
2019-02-02T09:33:02.481Z,53.60
2019-02-02T09:35:32.552Z,54.73
2019-02-02T09:38:01.378Z,53.78
2019-02-02T09:40:30.192Z,52.78
2019-02-02T09:42:59.066Z,50.25
2019-02-02T09:45:28.088Z,50.73
2019-02-02T09:47:58.652Z,50.83
2019-02-02T09:50:27.520Z,49.33
2019-02-02T09:52:56.396Z,53.15
2019-02-02T09:55:25.215Z,53.75
2019-02-02T09:58:01.856Z,50.98
2019-02-02T10:00:31.784Z,50.10
2019-02-02T10:03:00.506Z,55.17
2019-02-02T10:05:30.094Z,52.40
2019-02-02T10:08:01.391Z,50.00
2019-02-02T10:10:31.903Z,50.25
2019-02-02T10:13:00.913Z,50.60
2019-02-02T10:15:29.698Z,44.77
2019-02-02T10:17:58.564Z,48.05
2019-02-02T10:20:31.399Z,47.27
2019-02-02T10:23:00.256Z,46.55
2019-02-02T10:25:30.158Z,46.08
2019-02-02T10:27:59.063Z,47.73
2019-02-02T10:30:37.312Z,46.55
2019-02-02T10:33:06.294Z,45.50
2019-02-02T10:35:35.094Z,44.25
2019-02-02T10:38:03.954Z,44.15
2019-02-02T10:40:32.774Z,42.45
2019-02-02T10:43:01.600Z,42.78
2019-02-02T10:45:30.358Z,42.75
2019-02-02T10:47:59.078Z,42.95
2019-02-02T10:50:27.951Z,43.17
2019-02-02T10:52:56.811Z,41.48
2019-02-02T10:55:25.620Z,44.15
2019-02-02T10:57:54.372Z,43.05
2019-02-02T11:00:25.310Z,47.48
2019-02-02T11:02:54.158Z,45.60
2019-02-02T11:05:24.630Z,42.45
2019-02-02T11:07:54.607Z,41.20
2019-02-02T11:10:27.593Z,41.60
2019-02-02T11:12:56.414Z,41.80
2019-02-02T11:15:25.247Z,42.40
2019-02-02T11:17:54.145Z,43.95
2019-02-02T11:20:28.701Z,42.30
2019-02-02T11:22:57.600Z,40.30
2019-02-02T11:25:28.107Z,38.05
2019-02-02T11:27:57.024Z,39.03
2019-02-02T11:30:25.806Z,38.38
2019-02-02T11:32:54.718Z,39.27
2019-02-02T11:35:23.603Z,41.25
2019-02-02T11:37:52.687Z,42.10
2019-02-02T11:40:24.465Z,41.28
2019-02-02T11:42:53.424Z,38.10
2019-02-02T11:45:24.361Z,41.58
2019-02-02T11:47:53.099Z,40.85
2019-02-02T11:50:24.084Z,35.88
2019-02-02T11:52:52.855Z,34.45
2019-02-02T11:55:21.715Z,34.03
2019-02-02T11:57:50.506Z,35.05
2019-02-02T12:00:22.074Z,34.08
2019-02-02T12:02:50.815Z,36.13
2019-02-02T12:05:19.756Z,34.13
2019-02-02T12:07:48.738Z,32.50
2019-02-02T12:10:18.986Z,32.05
2019-02-02T12:12:47.756Z,34.70
2019-02-02T12:15:17.553Z,34.00
2019-02-02T12:17:46.356Z,34.18
2019-02-02T12:20:16.493Z,35.00
2019-02-02T12:22:45.282Z,30.75
2019-02-02T12:25:14.182Z,29.37
2019-02-02T12:27:44.155Z,29.92
2019-02-02T12:30:15.646Z,30.17
2019-02-02T12:32:44.558Z,30.15
2019-02-02T12:35:15.865Z,32.13
2019-02-02T12:37:44.608Z,31.55
2019-02-02T12:40:13.727Z,31.45
2019-02-02T12:42:42.562Z,31.93
2019-02-02T12:45:17.451Z,30.32
2019-02-02T12:47:46.235Z,31.07
2019-02-02T12:50:15.106Z,27.00
2019-02-02T12:52:43.873Z,26.82
2019-02-02T12:55:12.690Z,24.35
2019-02-02T12:57:41.471Z,25.48
2019-02-02T13:00:13.598Z,26.73
2019-02-02T13:02:42.517Z,22.80
2019-02-02T13:05:11.334Z,22.58
2019-02-02T13:07:42.866Z,21.68
2019-02-02T13:10:16.394Z,19.02
2019-02-02T13:12:45.255Z,19.23
2019-02-02T13:15:14.058Z,20.35
2019-02-02T13:17:42.815Z,20.30
2019-02-02T13:20:11.885Z,21.93
2019-02-02T13:22:40.734Z,21.57
2019-02-02T13:25:11.907Z,21.60
2019-02-02T13:27:40.614Z,21.62
2019-02-02T13:30:13.053Z,21.50
2019-02-02T13:32:49.412Z,29.63
2019-02-02T13:35:13.473Z,20.85
2019-02-02T13:37:42.358Z,21.00
2019-02-02T13:40:14.120Z,23.12
2019-02-02T13:42:42.973Z,20.43
2019-02-02T13:45:12.366Z,17.32
2019-02-02T13:47:41.235Z,19.23
2019-02-02T13:50:13.733Z,19.37
2019-02-02T13:52:46.343Z,20.27
2019-02-02T13:55:15.302Z,17.12
2019-02-02T13:57:44.138Z,18.95
2019-02-02T14:00:15.691Z,19.05
2019-02-02T14:02:44.402Z,18.90
2019-02-02T14:05:14.474Z,18.25
2019-02-02T14:07:43.249Z,18.15
2019-02-02T14:10:19.728Z,19.45
2019-02-02T14:12:48.264Z,20.37
2019-02-02T14:15:19.882Z,19.95
2019-02-02T14:17:48.713Z,20.68
2019-02-02T14:20:19.336Z,23.95
2019-02-02T14:22:48.194Z,20.88
2019-02-02T14:25:17.654Z,21.15
2019-02-02T14:27:46.439Z,22.45
2019-02-02T14:30:18.203Z,23.95
2019-02-02T14:32:47.004Z,21.95
2019-02-02T14:35:16.830Z,23.50
2019-02-02T14:37:45.742Z,23.45
2019-02-02T14:40:15.457Z,24.80
2019-02-02T14:42:44.318Z,24.57
2019-02-02T14:45:15.085Z,22.93
2019-02-02T14:47:43.997Z,24.72
2019-02-02T14:50:14.961Z,24.32
2019-02-02T14:52:43.682Z,23.52
2019-02-02T14:55:14.692Z,23.83
2019-02-02T14:57:43.602Z,25.48
2019-02-02T15:00:17.550Z,24.50
2019-02-02T15:02:46.384Z,25.62
2019-02-02T15:05:15.574Z,26.07
2019-02-02T15:07:44.558Z,25.95
2019-02-02T15:10:13.430Z,28.07
2019-02-02T15:12:42.331Z,27.05
2019-02-02T15:15:11.888Z,27.67
2019-02-02T15:17:40.743Z,26.35
2019-02-02T15:20:13.677Z,26.68
2019-02-02T15:22:42.430Z,24.57
2019-02-02T15:25:11.228Z,23.92
2019-02-02T15:27:41.049Z,24.47
2019-02-02T15:30:11.882Z,25.20
2019-02-02T15:32:40.778Z,24.98
2019-02-02T15:35:09.530Z,24.87
2019-02-02T15:37:38.283Z,24.77
2019-02-02T15:40:07.752Z,24.30
2019-02-02T15:42:36.570Z,24.95
2019-02-02T15:45:08.239Z,25.90
2019-02-02T15:47:41.161Z,23.30
2019-02-02T15:50:11.846Z,22.13
2019-02-02T15:52:40.674Z,23.20
2019-02-02T15:55:12.111Z,24.20
2019-02-02T15:57:41.002Z,23.73
2019-02-02T16:00:14.024Z,21.00
2019-02-02T16:02:42.815Z,20.35
2019-02-02T16:05:12.842Z,19.10
2019-02-02T16:07:43.527Z,19.50
2019-02-02T16:10:15.536Z,19.42
2019-02-02T16:12:45.659Z,19.32
2019-02-02T16:15:15.892Z,21.48
2019-02-02T16:17:44.626Z,21.65
2019-02-02T16:20:18.864Z,19.77
2019-02-02T16:22:47.664Z,20.43
2019-02-02T16:25:16.506Z,22.32
2019-02-02T16:27:45.259Z,23.67
2019-02-02T16:30:16.809Z,25.08
2019-02-02T16:32:46.014Z,23.90
2019-02-02T16:35:14.823Z,24.43
2019-02-02T16:37:45.981Z,24.30
2019-02-02T16:40:16.809Z,25.12
2019-02-02T16:42:45.538Z,25.75
2019-02-02T16:45:16.126Z,25.90
2019-02-02T16:47:44.924Z,26.85
2019-02-02T16:50:15.367Z,26.10
2019-02-02T16:52:44.242Z,28.05
2019-02-02T16:55:13.108Z,26.97
2019-02-02T16:57:41.939Z,28.38
2019-02-02T17:00:18.619Z,30.15
2019-02-02T17:02:47.397Z,30.60
2019-02-02T17:05:16.212Z,31.17
2019-02-02T17:07:46.330Z,30.02
2019-02-02T17:10:20.855Z,31.55
2019-02-02T17:12:49.713Z,32.28
2019-02-02T17:15:18.433Z,30.17
2019-02-02T17:17:47.186Z,32.67
2019-02-02T17:20:18.504Z,30.75
2019-02-02T17:22:47.337Z,32.28
2019-02-02T17:25:17.554Z,33.90
2019-02-02T17:27:47.386Z,31.80
2019-02-02T17:30:18.226Z,33.18
2019-02-02T17:32:47.240Z,32.67
2019-02-02T17:35:16.150Z,31.50
2019-02-02T17:37:45.398Z,33.80
2019-02-02T17:40:16.987Z,35.45
2019-02-02T17:42:47.400Z,35.70
2019-02-02T17:45:17.497Z,33.30
2019-02-02T17:47:46.435Z,36.08
2019-02-02T17:50:17.111Z,36.03
2019-02-02T17:52:45.855Z,35.70
2019-02-02T17:55:14.649Z,34.23
2019-02-02T17:57:43.426Z,34.90
2019-02-02T18:00:17.438Z,34.45
2019-02-02T18:02:46.179Z,34.18
2019-02-02T18:05:14.915Z,32.20
2019-02-02T18:07:43.771Z,32.95
2019-02-02T18:10:14.018Z,29.10
2019-02-02T18:12:42.811Z,30.97
2019-02-02T18:15:12.722Z,23.98
2019-02-02T18:17:43.428Z,23.60
2019-02-02T18:20:13.350Z,22.10
2019-02-02T18:22:44.226Z,21.33
2019-02-02T18:25:13.602Z,20.95
2019-02-02T18:27:42.419Z,21.02
2019-02-02T18:30:14.454Z,19.80
2019-02-02T18:32:43.273Z,20.88
2019-02-02T18:35:12.055Z,20.17
2019-02-02T18:37:40.975Z,17.75
2019-02-02T18:40:11.190Z,18.95
2019-02-02T18:42:39.926Z,19.25
2019-02-02T18:45:09.907Z,18.23
2019-02-02T18:47:38.673Z,20.27
2019-02-02T18:50:10.414Z,20.75
2019-02-02T18:52:39.218Z,21.40
2019-02-02T18:55:13.179Z,20.70
2019-02-02T18:57:41.314Z,21.40
2019-02-02T19:00:13.734Z,24.55
2019-02-02T19:02:45.440Z,23.52
2019-02-02T19:05:14.910Z,22.52
2019-02-02T19:07:43.636Z,26.27
2019-02-02T19:10:15.026Z,24.57
2019-02-02T19:12:43.767Z,27.50
2019-02-02T19:15:12.755Z,26.50
2019-02-02T19:17:41.530Z,26.40
2019-02-02T19:20:13.437Z,25.95
2019-02-02T19:22:42.209Z,28.52
2019-02-02T19:25:10.971Z,27.58
2019-02-02T19:27:45.090Z,28.95
2019-02-02T19:30:17.142Z,30.30
2019-02-02T19:32:47.505Z,31.40
2019-02-02T19:35:16.703Z,30.37
2019-02-02T19:37:45.543Z,31.48
2019-02-02T19:40:14.593Z,31.87
2019-02-02T19:42:46.560Z,30.62
2019-02-02T19:45:17.378Z,30.27
2019-02-02T19:47:46.246Z,28.50
2019-02-02T19:50:17.447Z,30.75
2019-02-02T19:52:46.226Z,30.35
2019-02-02T19:55:15.187Z,28.57
2019-02-02T19:57:44.170Z,28.15
2019-02-02T20:00:22.237Z,27.40
2019-02-02T20:02:51.374Z,26.85
2019-02-02T20:05:28.231Z,28.25
2019-02-02T20:07:50.556Z,27.00
2019-02-02T20:10:19.744Z,27.58
2019-02-02T20:12:48.590Z,28.67
2019-02-02T20:15:19.166Z,27.85
2019-02-02T20:17:47.955Z,29.27
2019-02-02T20:20:18.387Z,26.52
2019-02-02T20:22:47.253Z,27.67
2019-02-02T20:25:16.144Z,27.48
2019-02-02T20:27:44.926Z,27.35
2019-02-02T20:30:16.065Z,29.75
2019-02-02T20:32:44.814Z,28.73
2019-02-02T20:35:13.618Z,30.17
2019-02-02T20:37:42.446Z,29.30
2019-02-02T20:40:13.537Z,27.75
2019-02-02T20:42:42.277Z,30.68
2019-02-02T20:45:13.374Z,30.88
2019-02-02T20:47:42.203Z,31.00
2019-02-02T20:50:13.757Z,31.02
2019-02-02T20:52:47.405Z,33.45
2019-02-02T20:55:18.715Z,34.83
2019-02-02T20:57:47.603Z,34.00
2019-02-02T21:00:19.783Z,34.53
2019-02-02T21:02:48.614Z,36.30
2019-02-02T21:05:17.455Z,35.50
2019-02-02T21:07:46.382Z,37.73
2019-02-02T21:10:17.291Z,37.48
2019-02-02T21:12:46.127Z,38.88
2019-02-02T21:15:14.932Z,39.65
2019-02-02T21:17:43.994Z,40.23
2019-02-02T21:20:15.272Z,40.65
2019-02-02T21:22:44.160Z,42.17
2019-02-02T21:25:13.393Z,40.15
2019-02-02T21:27:42.372Z,42.27
2019-02-02T21:30:16.964Z,40.83
2019-02-02T21:32:46.190Z,40.85
2019-02-02T21:35:15.161Z,40.73
2019-02-02T21:37:51.444Z,40.00
2019-02-02T21:40:24.275Z,39.53
2019-02-02T21:42:53.099Z,41.90
2019-02-02T21:45:23.383Z,38.05
2019-02-02T21:47:52.604Z,39.58
2019-02-02T21:50:22.423Z,39.15
2019-02-02T21:52:51.526Z,40.25
2019-02-02T21:55:24.917Z,41.65
2019-02-02T21:57:53.710Z,43.28
2019-02-02T22:00:34.152Z,42.55
2019-02-02T22:03:03.014Z,43.17
2019-02-02T22:05:31.954Z,45.58
2019-02-02T22:08:00.848Z,44.85
2019-02-02T22:10:29.561Z,43.98
2019-02-02T22:12:58.790Z,44.40
2019-02-02T22:15:27.614Z,46.65
2019-02-02T22:17:58.066Z,46.08
2019-02-02T22:20:26.817Z,46.37
2019-02-02T22:22:55.788Z,46.88
2019-02-02T22:25:26.883Z,47.85
2019-02-02T22:27:55.691Z,48.50
2019-02-02T22:30:30.459Z,49.03
2019-02-02T22:32:59.283Z,45.70
2019-02-02T22:35:28.138Z,45.08
2019-02-02T22:37:57.471Z,46.05
2019-02-02T22:40:26.989Z,44.40
2019-02-02T22:42:55.864Z,43.75
2019-02-02T22:45:24.850Z,42.98
2019-02-02T22:47:54.158Z,43.40
2019-02-02T22:50:24.746Z,41.30
2019-02-02T22:52:53.688Z,38.73
2019-02-02T22:55:22.593Z,38.70
2019-02-02T22:57:54.044Z,37.15
2019-02-02T23:01:09.612Z,35.63
2019-02-02T23:03:47.801Z,33.33
2019-02-02T23:06:38.919Z,33.65
2019-02-02T23:09:57.763Z,31.10
2019-02-02T23:12:38.646Z,28.85
2019-02-02T23:15:46.361Z,28.27
2019-02-02T23:18:15.415Z,28.75
2019-02-02T23:20:46.054Z,28.90
2019-02-02T23:23:15.470Z,28.12
2019-02-02T23:25:47.447Z,27.42
2019-02-02T23:28:16.202Z,26.45
2019-02-02T23:30:46.642Z,26.90
2019-02-02T23:33:15.502Z,26.25
2019-02-02T23:35:44.379Z,27.87
2019-02-02T23:38:13.584Z,27.42
2019-02-02T23:40:43.434Z,26.27
2019-02-02T23:43:15.230Z,26.52
2019-02-02T23:45:48.094Z,26.25
2019-02-02T23:48:16.906Z,26.45
2019-02-02T23:50:46.027Z,27.67
2019-02-02T23:53:14.761Z,28.98
2019-02-02T23:55:43.641Z,25.95
2019-02-02T23:58:14.118Z,26.50
